To NAV CANADA Home Page Login to a new session Search on AWWS site Feedback and Comments Disclaimer Vers la page française équivalente Tips FAQ What's new on the site To the Forecasts and Observations / NOTAM section To "File a Flight Plan" website Publications and other links Update of the User's profile FIC Telephone Numbers My Weather Data Folder Route Weather Data Regional Weather Data Local Weather Data To the Forecasts and Observations / NOTAM section
Request Generated 08/22/2017 at 03:30:09 UTC . Weather information available at that time is displayed.

METAR/TAF

BAKER LAKE/NU    

METAR CYBK 220300Z 31011KT 20SM FEW240 10/M00 A3006 RMK CI1 SLP182=
METAR CYBK 220200Z 33009KT 20SM FEW240 10/01 A3006 RMK CI1 SLP182=
METAR CYBK 220100Z 33007KT 20SM FEW230 12/02 A3006 RMK CI1 SLP182=

TAF CYBK 212338Z 2200/2212 VRB03KT P6SM SKC
BECMG 2202/2204 31010KT
RMK NXT FCST BY 220600Z=
Your time UTC time
Weather data provided by Environment Canada and NAV CANADA